Time;durP1;ratioP1;P1;durP2;ratioP2;P2;SDS_P1;SDS_P2;PMS_P1;PMS_P2;Temp;Humidity;BMP_temperature;BMP_pressure;BME280_temperature;BME280_humidity;BME280_pressure;Samples;Min_cycle;Max_cycle;Signal;HPM_P1;HPM_P2
2023/04/05 00:00:44;;;;;;;0.40;0.40;;;;;;;;;;4984658;28;58656;-70
2023/04/05 00:03:09;;;;;;;0.27;0.27;;;;;;;;;;4989765;28;57717;-70
2023/04/05 00:05:35;;;;;;;0.20;0.20;;;;;;;;;;4991573;28;57934;-69
2023/04/05 00:08:01;;;;;;;0.52;0.43;;;;;;;;;;4992105;28;58574;-70
2023/04/05 00:10:26;;;;;;;0.32;0.30;;;;;;;;;;4984622;28;58375;-70
2023/04/05 00:12:51;;;;;;;0.60;0.60;;;;;;;;;;4969071;28;58806;-69
2023/04/05 00:15:16;;;;;;;0.17;0.17;;;;;;;;;;4987902;28;58934;-72
2023/04/05 00:17:42;;;;;;;0.38;0.30;;;;;;;;;;4989113;28;57954;-71
2023/04/05 00:20:09;;;;;;;0.45;0.45;;;;;;;;;;5009899;22;58855;-71
2023/04/05 00:22:35;;;;;;;0.68;0.30;;;;;;;;;;4987697;28;58339;-70
2023/04/05 00:25:01;;;;;;;0.30;0.28;;;;;;;;;;4988649;28;59484;-71
2023/04/05 00:27:26;;;;;;;0.80;0.30;;;;;;;;;;4988813;28;59025;-70
2023/04/05 00:29:51;;;;;;;0.50;0.50;;;;;;;;;;4993083;28;58599;-70
2023/04/05 00:32:16;;;;;;;0.20;0.20;;;;;;;;;;4981904;28;58894;-71
2023/04/05 00:34:41;;;;;;;0.20;0.20;;;;;;;;;;4982577;28;58080;-69
2023/04/05 00:37:06;;;;;;;0.30;0.30;;;;;;;;;;4967687;28;61091;-69
2023/04/05 00:39:32;;;;;;;0.50;0.50;;;;;;;;;;4980588;28;58956;-69
2023/04/05 00:41:57;;;;;;;0.45;0.30;;;;;;;;;;4983310;28;58737;-68
2023/04/05 00:44:22;;;;;;;0.43;0.30;;;;;;;;;;4979597;28;58700;-69
2023/04/05 00:46:47;;;;;;;0.22;0.22;;;;;;;;;;4982155;28;58639;-68
2023/04/05 00:49:12;;;;;;;0.33;0.33;;;;;;;;;;4982589;28;58873;-68
2023/04/05 00:51:37;;;;;;;0.30;0.30;;;;;;;;;;4982827;28;59075;-69
2023/04/05 00:54:03;;;;;;;0.30;0.30;;;;;;;;;;4982162;28;58686;-70
2023/04/05 00:56:29;;;;;;;0.30;0.30;;;;;;;;;;4979159;28;58222;-68
2023/04/05 00:58:54;;;;;;;0.28;0.28;;;;;;;;;;4979661;28;58559;-69
2023/04/05 01:01:21;;;;;;;0.20;0.20;;;;;;;;;;4979342;28;59049;-69
2023/04/05 01:03:52;;;;;;;0.20;0.20;;;;;;;;;;4981349;28;58782;-68
2023/04/05 01:06:36;;;;;;;0.30;0.30;;;;;;;;;;4976396;28;58690;-69
2023/04/05 01:09:25;;;;;;;0.10;0.10;;;;;;;;;;4980893;28;60005;-68
2023/04/05 01:11:51;;;;;;;0.30;0.30;;;;;;;;;;4981927;28;61972;-69
2023/04/05 01:14:16;;;;;;;0.60;0.60;;;;;;;;;;4980720;28;58546;-68
2023/04/05 01:16:41;;;;;;;0.25;0.25;;;;;;;;;;4980059;28;58476;-69
2023/04/05 01:19:08;;;;;;;0.22;0.22;;;;;;;;;;4961954;28;59484;-68
2023/04/05 01:21:36;;;;;;;0.30;0.30;;;;;;;;;;5011897;22;58499;-68
2023/04/05 01:24:21;;;;;;;0.40;0.40;;;;;;;;;;4999502;28;59043;-69
2023/04/05 01:26:55;;;;;;;0.35;0.35;;;;;;;;;;4994856;28;61624;-69
2023/04/05 01:29:34;;;;;;;0.30;0.30;;;;;;;;;;4998946;28;58547;-68
2023/04/05 01:32:04;;;;;;;0.32;0.32;;;;;;;;;;4997973;28;58699;-68
2023/04/05 01:34:48;;;;;;;0.30;0.30;;;;;;;;;;4999488;28;59933;-69
2023/04/05 01:37:16;;;;;;;0.32;0.32;;;;;;;;;;4996886;28;58523;-68
2023/04/05 01:39:42;;;;;;;0.17;0.17;;;;;;;;;;4997795;28;60148;-69
2023/04/05 01:42:09;;;;;;;0.40;0.40;;;;;;;;;;5001403;28;59676;-68
2023/04/05 01:44:34;;;;;;;0.63;0.38;;;;;;;;;;4999736;28;58894;-69
2023/04/05 01:46:59;;;;;;;0.60;0.60;;;;;;;;;;4999535;28;58976;-69
2023/04/05 01:49:24;;;;;;;0.20;0.20;;;;;;;;;;4998167;28;58388;-69
2023/04/05 01:51:50;;;;;;;0.20;0.20;;;;;;;;;;5000306;28;59566;-69
2023/04/05 01:54:15;;;;;;;0.35;0.35;;;;;;;;;;4999310;28;58511;-68
2023/04/05 01:56:40;;;;;;;0.20;0.20;;;;;;;;;;5002133;28;58709;-68
2023/04/05 01:59:05;;;;;;;0.32;0.32;;;;;;;;;;4996977;28;58554;-69
2023/04/05 02:01:30;;;;;;;0.43;0.43;;;;;;;;;;4998456;28;58348;-69
2023/04/05 02:03:56;;;;;;;0.40;0.30;;;;;;;;;;4997475;28;59886;-69
2023/04/05 02:06:21;;;;;;;0.30;0.30;;;;;;;;;;4997774;28;58862;-68
2023/04/05 02:08:46;;;;;;;0.40;0.40;;;;;;;;;;4998584;28;58568;-69
2023/04/05 02:11:11;;;;;;;0.38;0.38;;;;;;;;;;5001415;28;58774;-69
2023/04/05 02:13:36;;;;;;;0.32;0.32;;;;;;;;;;5000827;28;58931;-68
2023/04/05 02:16:01;;;;;;;0.50;0.40;;;;;;;;;;5007800;28;58383;-69
2023/04/05 02:18:30;;;;;;;0.32;0.30;;;;;;;;;;5009138;28;58823;-69
2023/04/05 02:21:04;;;;;;;0.32;0.32;;;;;;;;;;5002661;28;58838;-69
2023/04/05 02:23:30;;;;;;;0.32;0.30;;;;;;;;;;5039176;22;64502;-69
2023/04/05 02:25:56;;;;;;;0.30;0.30;;;;;;;;;;5021635;28;58588;-68
2023/04/05 02:28:21;;;;;;;0.20;0.20;;;;;;;;;;5020412;28;58484;-68
2023/04/05 02:30:46;;;;;;;0.33;0.33;;;;;;;;;;5020856;28;58979;-69
2023/04/05 02:33:11;;;;;;;0.30;0.30;;;;;;;;;;5023143;28;58489;-69
2023/04/05 02:35:36;;;;;;;0.30;0.30;;;;;;;;;;5024782;28;58762;-69
2023/04/05 02:38:03;;;;;;;0.30;0.23;;;;;;;;;;5021119;28;58360;-68
2023/04/05 02:40:28;;;;;;;0.60;0.52;;;;;;;;;;5020075;28;58355;-68
2023/04/05 02:42:53;;;;;;;0.35;0.20;;;;;;;;;;5021417;28;59998;-69
2023/04/05 02:45:18;;;;;;;0.37;0.33;;;;;;;;;;5023614;28;58262;-69
2023/04/05 02:47:44;;;;;;;0.50;0.40;;;;;;;;;;5022092;28;58517;-69
2023/04/05 02:50:09;;;;;;;0.30;0.30;;;;;;;;;;5021859;28;58298;-69
2023/04/05 02:52:36;;;;;;;0.30;0.30;;;;;;;;;;5019579;28;58495;-69
2023/04/05 02:55:01;;;;;;;0.50;0.40;;;;;;;;;;5023612;28;58468;-69
2023/04/05 02:57:26;;;;;;;0.87;0.50;;;;;;;;;;5023341;28;59547;-68
2023/04/05 02:59:51;;;;;;;0.43;0.40;;;;;;;;;;5022966;28;58909;-68
2023/04/05 03:02:17;;;;;;;0.17;0.17;;;;;;;;;;5019697;28;58346;-69
2023/04/05 03:04:43;;;;;;;0.20;0.20;;;;;;;;;;5021240;28;58189;-69
2023/04/05 03:07:09;;;;;;;0.75;0.50;;;;;;;;;;5020934;28;59097;-68
2023/04/05 03:09:37;;;;;;;0.40;0.30;;;;;;;;;;5023566;28;59565;-69
2023/04/05 03:12:02;;;;;;;0.35;0.35;;;;;;;;;;5019551;28;58449;-68
2023/04/05 03:14:28;;;;;;;0.40;0.30;;;;;;;;;;5024622;28;58620;-69
2023/04/05 03:16:53;;;;;;;0.30;0.30;;;;;;;;;;5022846;28;58406;-69
2023/04/05 03:19:21;;;;;;;0.50;0.35;;;;;;;;;;5021848;28;58796;-69
2023/04/05 03:21:46;;;;;;;0.33;0.27;;;;;;;;;;5020895;28;59330;-69
2023/04/05 03:26:36;;;;;;;0.30;0.30;;;;;;;;;;5019961;22;58026;-69
2023/04/05 03:29:01;;;;;;;0.20;0.20;;;;;;;;;;5001933;28;58434;-68
2023/04/05 03:31:29;;;;;;;0.30;0.23;;;;;;;;;;4998911;28;58586;-70
2023/04/05 03:33:54;;;;;;;0.32;0.32;;;;;;;;;;4999292;28;58737;-68
2023/04/05 03:36:20;;;;;;;0.30;0.30;;;;;;;;;;4999889;28;59235;-68
2023/04/05 03:38:45;;;;;;;0.20;0.20;;;;;;;;;;4999665;28;58750;-69
2023/04/05 03:41:10;;;;;;;0.40;0.30;;;;;;;;;;5001464;28;58302;-68
2023/04/05 03:43:36;;;;;;;0.30;0.30;;;;;;;;;;4999287;28;58281;-69
2023/04/05 03:46:01;;;;;;;0.20;0.20;;;;;;;;;;5001335;28;58481;-68
2023/04/05 03:48:27;;;;;;;0.20;0.20;;;;;;;;;;5002818;28;58205;-69
2023/04/05 03:50:52;;;;;;;0.57;0.57;;;;;;;;;;4969575;28;59439;-68
2023/04/05 03:53:18;;;;;;;0.30;0.30;;;;;;;;;;4979951;28;59328;-68
2023/04/05 03:55:48;;;;;;;0.30;0.30;;;;;;;;;;4981717;28;59204;-68
2023/04/05 03:58:13;;;;;;;0.20;0.20;;;;;;;;;;4981744;28;58863;-68
2023/04/05 04:00:38;;;;;;;0.20;0.20;;;;;;;;;;4984520;28;58936;-69
2023/04/05 04:03:03;;;;;;;0.30;0.30;;;;;;;;;;4985236;28;58431;-71
2023/04/05 04:05:28;;;;;;;0.52;0.50;;;;;;;;;;4979804;28;58759;-69
2023/04/05 04:07:53;;;;;;;0.50;0.50;;;;;;;;;;4984023;28;58443;-69
2023/04/05 04:10:19;;;;;;;0.38;0.38;;;;;;;;;;4981426;28;58115;-68
2023/04/05 04:12:44;;;;;;;0.70;0.50;;;;;;;;;;4983095;28;58904;-69
2023/04/05 04:15:10;;;;;;;0.40;0.40;;;;;;;;;;4979847;28;58426;-69
2023/04/05 04:17:36;;;;;;;0.30;0.30;;;;;;;;;;4979208;28;58799;-69
2023/04/05 04:20:06;;;;;;;0.40;0.40;;;;;;;;;;4982146;28;58539;-68
2023/04/05 04:22:37;;;;;;;0.40;0.40;;;;;;;;;;4983801;28;59180;-69
2023/04/05 04:25:03;;;;;;;0.35;0.35;;;;;;;;;;4973475;28;58802;-68
2023/04/05 04:27:29;;;;;;;0.32;0.32;;;;;;;;;;5009910;22;58502;-69
2023/04/05 04:30:00;;;;;;;0.30;0.30;;;;;;;;;;4986438;28;58707;-69
2023/04/05 04:32:46;;;;;;;0.32;0.32;;;;;;;;;;4986394;28;58674;-69
2023/04/05 04:35:13;;;;;;;0.30;0.30;;;;;;;;;;4981287;28;59868;-68
2023/04/05 04:37:45;;;;;;;0.40;0.40;;;;;;;;;;4977925;28;58820;-69
2023/04/05 04:40:11;;;;;;;0.30;0.30;;;;;;;;;;4981465;28;58776;-69
2023/04/05 04:42:37;;;;;;;0.32;0.30;;;;;;;;;;4982924;28;58707;-69
2023/04/05 04:45:03;;;;;;;0.57;0.40;;;;;;;;;;4982051;28;58560;-70
2023/04/05 04:47:29;;;;;;;0.30;0.30;;;;;;;;;;4980097;28;58275;-68
2023/04/05 04:49:56;;;;;;;0.35;0.35;;;;;;;;;;4982914;28;59996;-68
2023/04/05 04:52:21;;;;;;;0.68;0.65;;;;;;;;;;4987211;28;58511;-68
2023/04/05 04:54:46;;;;;;;0.20;0.20;;;;;;;;;;4985373;28;58625;-67
2023/04/05 04:57:11;;;;;;;0.20;0.20;;;;;;;;;;4979957;28;58777;-69
2023/04/05 04:59:36;;;;;;;0.20;0.20;;;;;;;;;;4987458;28;58505;-69
2023/04/05 05:02:01;;;;;;;0.30;0.30;;;;;;;;;;4987338;28;58482;-68
2023/04/05 05:04:27;;;;;;;0.30;0.30;;;;;;;;;;4986004;28;59165;-68
2023/04/05 05:06:52;;;;;;;0.83;0.70;;;;;;;;;;4982803;28;58975;-68
2023/04/05 05:09:18;;;;;;;0.30;0.30;;;;;;;;;;4986128;28;58482;-68
2023/04/05 05:11:43;;;;;;;0.43;0.30;;;;;;;;;;4983657;28;58769;-68
2023/04/05 05:14:08;;;;;;;0.70;0.45;;;;;;;;;;4965362;28;60172;-68
2023/04/05 05:16:33;;;;;;;0.40;0.40;;;;;;;;;;4983452;28;58826;-71
2023/04/05 05:18:58;;;;;;;0.40;0.40;;;;;;;;;;4983101;28;58703;-69
2023/04/05 05:21:23;;;;;;;0.60;0.47;;;;;;;;;;4984689;28;58663;-69
2023/04/05 05:23:49;;;;;;;0.50;0.50;;;;;;;;;;4983494;28;58575;-69
2023/04/05 05:26:15;;;;;;;0.60;0.60;;;;;;;;;;4984406;28;58445;-68
2023/04/05 05:28:40;;;;;;;0.30;0.30;;;;;;;;;;5022833;22;58688;-68
2023/04/05 05:31:05;;;;;;;0.37;0.37;;;;;;;;;;5000794;28;58865;-68
2023/04/05 05:33:30;;;;;;;0.30;0.30;;;;;;;;;;5000359;28;58477;-68
2023/04/05 05:35:57;;;;;;;0.50;0.50;;;;;;;;;;4983228;28;60789;-68
2023/04/05 05:38:22;;;;;;;0.60;0.60;;;;;;;;;;4981387;28;58443;-71
2023/04/05 05:40:47;;;;;;;0.55;0.55;;;;;;;;;;5001437;28;59090;-69
2023/04/05 05:43:12;;;;;;;0.40;0.40;;;;;;;;;;4999252;28;58758;-70
2023/04/05 05:45:38;;;;;;;0.73;0.40;;;;;;;;;;5001218;28;58553;-69
2023/04/05 05:48:03;;;;;;;0.30;0.30;;;;;;;;;;5002977;28;59865;-70
2023/04/05 05:50:31;;;;;;;0.40;0.40;;;;;;;;;;4995626;28;59570;-70
2023/04/05 05:52:57;;;;;;;0.30;0.30;;;;;;;;;;5004984;28;58439;-68
2023/04/05 05:55:22;;;;;;;0.50;0.50;;;;;;;;;;5000101;28;59028;-69
2023/04/05 05:57:47;;;;;;;0.40;0.40;;;;;;;;;;5005390;28;58383;-69
2023/04/05 06:00:13;;;;;;;0.47;0.35;;;;;;;;;;5001900;28;58238;-70
2023/04/05 06:02:38;;;;;;;0.40;0.40;;;;;;;;;;5004350;28;58755;-70
2023/04/05 06:05:03;;;;;;;0.47;0.47;;;;;;;;;;5007370;28;58909;-70
2023/04/05 06:07:28;;;;;;;0.40;0.40;;;;;;;;;;5004098;28;58289;-71
2023/04/05 06:09:54;;;;;;;0.57;0.50;;;;;;;;;;4999676;28;59267;-71
2023/04/05 06:12:22;;;;;;;0.47;0.47;;;;;;;;;;5005388;28;58380;-71
2023/04/05 06:14:47;;;;;;;0.65;0.40;;;;;;;;;;5006443;28;58363;-71
2023/04/05 06:17:13;;;;;;;0.33;0.30;;;;;;;;;;5004937;28;58327;-71
2023/04/05 06:19:38;;;;;;;0.30;0.30;;;;;;;;;;5001043;28;59253;-71
2023/04/05 06:22:03;;;;;;;0.40;0.37;;;;;;;;;;4998671;28;58745;-71
2023/04/05 06:24:31;;;;;;;3.13;0.47;;;;;;;;;;5003803;28;59586;-69
2023/04/05 06:26:57;;;;;;;0.50;0.50;;;;;;;;;;5005690;28;58626;-70
2023/04/05 06:29:22;;;;;;;2.03;1.02;;;;;;;;;;5000990;28;58877;-71
2023/04/05 06:31:47;;;;;;;1.33;0.57;;;;;;;;;;5027459;22;58450;-70
2023/04/05 06:34:12;;;;;;;1.37;0.57;;;;;;;;;;5002439;28;58879;-70
2023/04/05 06:36:37;;;;;;;2.55;0.65;;;;;;;;;;5002175;28;58595;-70
2023/04/05 06:39:03;;;;;;;2.33;1.00;;;;;;;;;;5005164;28;58956;-71
2023/04/05 06:41:28;;;;;;;3.25;0.80;;;;;;;;;;4985249;28;59582;-71
2023/04/05 06:43:54;;;;;;;4.77;1.20;;;;;;;;;;5004210;28;58924;-71
2023/04/05 06:46:19;;;;;;;1.02;0.93;;;;;;;;;;5004906;28;58652;-71
2023/04/05 06:48:46;;;;;;;1.63;0.80;;;;;;;;;;5007302;28;58746;-70
2023/04/05 06:51:11;;;;;;;1.63;1.33;;;;;;;;;;5007390;28;58866;-71
2023/04/05 06:53:36;;;;;;;2.40;1.20;;;;;;;;;;5004786;28;58711;-70
2023/04/05 06:56:02;;;;;;;3.37;0.53;;;;;;;;;;5005559;28;58328;-71
2023/04/05 06:58:27;;;;;;;2.20;1.33;;;;;;;;;;5002687;28;58558;-70
2023/04/05 07:00:52;;;;;;;2.80;1.63;;;;;;;;;;5000574;28;59205;-71
2023/04/05 07:03:18;;;;;;;2.67;0.80;;;;;;;;;;4999970;28;59341;-70
2023/04/05 07:05:52;;;;;;;2.43;1.00;;;;;;;;;;5004307;28;59340;-70
2023/04/05 07:08:18;;;;;;;4.80;1.33;;;;;;;;;;5001691;28;59472;-70
2023/04/05 07:10:44;;;;;;;4.43;2.17;;;;;;;;;;5003791;28;58782;-71
2023/04/05 07:13:09;;;;;;;2.10;1.05;;;;;;;;;;5006929;28;58695;-70
2023/04/05 07:15:34;;;;;;;3.65;0.80;;;;;;;;;;4998842;28;57883;-70
2023/04/05 07:17:59;;;;;;;1.60;0.65;;;;;;;;;;4999325;28;58606;-70
2023/04/05 07:20:25;;;;;;;5.18;1.30;;;;;;;;;;5003473;28;58378;-70
2023/04/05 07:22:50;;;;;;;2.63;1.10;;;;;;;;;;5002440;28;58697;-70
2023/04/05 07:25:15;;;;;;;8.05;0.90;;;;;;;;;;4999869;28;58843;-66
2023/04/05 07:27:40;;;;;;;1.07;0.80;;;;;;;;;;5006590;28;58393;-66
2023/04/05 07:30:06;;;;;;;4.97;2.35;;;;;;;;;;5007325;28;58719;-66
2023/04/05 07:32:32;;;;;;;0.90;0.70;;;;;;;;;;5003384;28;59001;-71
2023/04/05 07:34:57;;;;;;;1.10;0.63;;;;;;;;;;5002736;28;58579;-69
2023/04/05 07:37:23;;;;;;;5.05;1.67;;;;;;;;;;5007126;28;58654;-71
2023/04/05 07:39:48;;;;;;;2.63;1.43;;;;;;;;;;5002896;28;59072;-70
2023/04/05 07:42:13;;;;;;;2.05;1.13;;;;;;;;;;5001493;28;58344;-70
2023/04/05 07:44:38;;;;;;;5.15;1.92;;;;;;;;;;5003433;28;59561;-70
2023/04/05 07:47:03;;;;;;;2.00;0.87;;;;;;;;;;5000630;28;58399;-71
2023/04/05 07:49:29;;;;;;;1.77;0.80;;;;;;;;;;5016826;22;58428;-71
2023/04/05 07:51:55;;;;;;;4.55;1.02;;;;;;;;;;4987121;28;58802;-71
2023/04/05 07:54:20;;;;;;;2.30;0.70;;;;;;;;;;4987169;28;58808;-71
2023/04/05 07:56:45;;;;;;;1.87;1.30;;;;;;;;;;4989906;28;58058;-71
2023/04/05 07:59:11;;;;;;;1.73;1.27;;;;;;;;;;4986834;28;58692;-73
2023/04/05 08:01:36;;;;;;;1.33;0.63;;;;;;;;;;4989062;28;58741;-70
2023/04/05 08:04:02;;;;;;;3.67;0.90;;;;;;;;;;4989858;28;58753;-71
2023/04/05 08:06:27;;;;;;;4.43;0.77;;;;;;;;;;4989228;28;58872;-70
2023/04/05 08:08:52;;;;;;;0.77;0.60;;;;;;;;;;4987158;28;58903;-73
2023/04/05 08:11:17;;;;;;;0.53;0.50;;;;;;;;;;4985193;28;60114;-71
2023/04/05 08:13:42;;;;;;;0.57;0.50;;;;;;;;;;4989574;28;58324;-71
2023/04/05 08:16:08;;;;;;;1.77;1.07;;;;;;;;;;4990665;28;58482;-71
2023/04/05 08:18:33;;;;;;;1.70;1.02;;;;;;;;;;4993386;28;58426;-70
2023/04/05 08:20:58;;;;;;;1.00;0.60;;;;;;;;;;4987525;28;59390;-73
2023/04/05 08:23:24;;;;;;;1.87;0.70;;;;;;;;;;4987176;28;58395;-72
2023/04/05 08:25:49;;;;;;;1.85;0.57;;;;;;;;;;4990348;28;58341;-71
2023/04/05 08:28:14;;;;;;;0.60;0.55;;;;;;;;;;4991316;28;58501;-70
2023/04/05 08:30:39;;;;;;;7.07;0.70;;;;;;;;;;4988521;28;59418;-71
2023/04/05 08:33:05;;;;;;;1.08;0.57;;;;;;;;;;4990849;28;58746;-69
2023/04/05 08:35:31;;;;;;;2.97;0.97;;;;;;;;;;4988763;28;58111;-70
2023/04/05 08:37:56;;;;;;;0.63;0.47;;;;;;;;;;4988912;28;58444;-69
2023/04/05 08:40:27;;;;;;;0.40;0.40;;;;;;;;;;4993722;28;58256;-71
2023/04/05 08:42:59;;;;;;;2.22;1.33;;;;;;;;;;4989918;28;58548;-70
2023/04/05 08:45:24;;;;;;;0.50;0.50;;;;;;;;;;4988396;28;58424;-69
2023/04/05 08:47:51;;;;;;;0.82;0.50;;;;;;;;;;4992176;28;58148;-69
2023/04/05 08:50:16;;;;;;;1.67;0.57;;;;;;;;;;5016670;22;58848;-69
2023/04/05 08:52:42;;;;;;;0.60;0.40;;;;;;;;;;4973892;28;58674;-71
2023/04/05 08:55:07;;;;;;;0.90;0.55;;;;;;;;;;4981061;28;58183;-69
2023/04/05 08:57:36;;;;;;;1.20;0.50;;;;;;;;;;4976303;28;59189;-69
2023/04/05 09:00:01;;;;;;;1.35;0.60;;;;;;;;;;4978301;28;59379;-69
2023/04/05 09:02:27;;;;;;;0.43;0.30;;;;;;;;;;4974377;28;58365;-69
2023/04/05 09:04:52;;;;;;;0.88;0.50;;;;;;;;;;4978310;28;59205;-71
2023/04/05 09:07:18;;;;;;;0.63;0.63;;;;;;;;;;4979838;28;60576;-69
2023/04/05 09:09:48;;;;;;;0.60;0.40;;;;;;;;;;4978279;28;58639;-69
2023/04/05 09:12:13;;;;;;;0.93;0.50;;;;;;;;;;4971999;28;58482;-69
2023/04/05 09:14:39;;;;;;;1.25;0.30;;;;;;;;;;4978642;28;58152;-69
2023/04/05 09:17:05;;;;;;;1.10;0.85;;;;;;;;;;4974140;28;58999;-69
2023/04/05 09:19:30;;;;;;;0.75;0.30;;;;;;;;;;4978109;28;59609;-70
2023/04/05 09:22:05;;;;;;;0.83;0.30;;;;;;;;;;4974152;28;58614;-69
2023/04/05 09:24:33;;;;;;;2.28;0.38;;;;;;;;;;4974413;28;58970;-69
2023/04/05 09:27:05;;;;;;;0.50;0.20;;;;;;;;;;4976750;28;58333;-69
2023/04/05 09:29:30;;;;;;;0.55;0.40;;;;;;;;;;4970946;28;58653;-68
2023/04/05 09:31:55;;;;;;;0.60;0.37;;;;;;;;;;4970010;28;58456;-70
2023/04/05 09:34:23;;;;;;;0.38;0.38;;;;;;;;;;4965361;28;58753;-70
2023/04/05 09:36:48;;;;;;;1.88;0.65;;;;;;;;;;4967122;28;58325;-71
2023/04/05 09:39:15;;;;;;;0.70;0.70;;;;;;;;;;4971400;28;60712;-71
2023/04/05 09:41:40;;;;;;;0.73;0.60;;;;;;;;;;4973340;28;58645;-70
2023/04/05 09:44:06;;;;;;;2.63;0.30;;;;;;;;;;4971103;28;59785;-71
2023/04/05 09:46:32;;;;;;;0.37;0.30;;;;;;;;;;4966259;28;58406;-70
2023/04/05 09:48:58;;;;;;;0.63;0.47;;;;;;;;;;4972065;28;58594;-70
2023/04/05 09:51:30;;;;;;;0.70;0.55;;;;;;;;;;5021426;22;58875;-70
2023/04/05 09:54:00;;;;;;;0.77;0.47;;;;;;;;;;5004900;28;58501;-71
2023/04/05 09:56:25;;;;;;;0.55;0.40;;;;;;;;;;5001702;28;58659;-72
2023/04/05 09:58:51;;;;;;;0.15;0.15;;;;;;;;;;5004420;28;59365;-72
2023/04/05 10:01:16;;;;;;;0.73;0.30;;;;;;;;;;5005920;28;58402;-70
2023/04/05 10:03:48;;;;;;;0.50;0.43;;;;;;;;;;5004890;28;59897;-70
2023/04/05 10:06:14;;;;;;;1.05;0.47;;;;;;;;;;5002861;28;58599;-70
2023/04/05 10:08:39;;;;;;;0.93;0.35;;;;;;;;;;5007209;28;58611;-70
2023/04/05 10:11:05;;;;;;;1.03;0.60;;;;;;;;;;5005293;28;58420;-70
2023/04/05 10:13:30;;;;;;;0.40;0.25;;;;;;;;;;5005130;28;58515;-70
2023/04/05 10:15:57;;;;;;;1.50;0.50;;;;;;;;;;5002545;28;58794;-71
2023/04/05 10:18:25;;;;;;;1.23;0.50;;;;;;;;;;5006133;28;58683;-70
2023/04/05 10:20:50;;;;;;;;;;;;;;;;;;5004922;28;58439;-70
2023/04/05 10:23:23;;;;;;;0.97;0.93;;;;;;;;;;5004635;28;58305;-69
2023/04/05 10:25:52;;;;;;;5.05;0.40;;;;;;;;;;5004513;28;58937;-70
2023/04/05 10:28:36;;;;;;;0.80;0.75;;;;;;;;;;5003516;28;58228;-70
2023/04/05 10:31:13;;;;;;;2.08;0.60;;;;;;;;;;5004301;28;58504;-70
2023/04/05 10:33:40;;;;;;;0.80;0.80;;;;;;;;;;5006072;28;58624;-70
2023/04/05 10:36:05;;;;;;;0.40;0.20;;;;;;;;;;5011166;28;58225;-71
2023/04/05 10:38:41;;;;;;;0.93;0.40;;;;;;;;;;5006131;28;58641;-69
2023/04/05 10:41:11;;;;;;;0.38;0.38;;;;;;;;;;5008584;28;58708;-70
2023/04/05 10:43:36;;;;;;;1.05;0.40;;;;;;;;;;5009319;28;58179;-70
2023/04/05 10:46:02;;;;;;;0.20;0.20;;;;;;;;;;4999894;28;58311;-70
2023/04/05 10:48:35;;;;;;;0.28;0.28;;;;;;;;;;5006432;28;58196;-71
2023/04/05 10:51:02;;;;;;;0.47;0.30;;;;;;;;;;5036644;22;58217;-70
2023/04/05 10:53:28;;;;;;;0.40;0.35;;;;;;;;;;5004067;28;58553;-70
2023/04/05 10:55:54;;;;;;;0.40;0.40;;;;;;;;;;5006511;28;58497;-70
2023/04/05 10:58:20;;;;;;;0.25;0.22;;;;;;;;;;4997886;28;59075;-70
2023/04/05 11:00:46;;;;;;;0.30;0.25;;;;;;;;;;5003426;28;58681;-69
2023/04/05 11:03:31;;;;;;;0.30;0.30;;;;;;;;;;5004710;28;60148;-70
2023/04/05 11:06:17;;;;;;;0.22;0.22;;;;;;;;;;5000875;28;58842;-69
2023/04/05 11:08:42;;;;;;;0.20;0.20;;;;;;;;;;5002499;28;58731;-72
2023/04/05 11:11:08;;;;;;;0.73;0.40;;;;;;;;;;5002459;28;58787;-70
2023/04/05 11:13:49;;;;;;;1.42;0.30;;;;;;;;;;5002161;28;58750;-71
2023/04/05 11:16:14;;;;;;;0.70;0.47;;;;;;;;;;5004770;28;58802;-69
2023/04/05 11:18:46;;;;;;;1.90;0.30;;;;;;;;;;5004849;28;58700;-71
2023/04/05 11:21:18;;;;;;;0.20;0.20;;;;;;;;;;5003489;28;58820;-70
2023/04/05 11:23:58;;;;;;;0.63;0.63;;;;;;;;;;5002217;28;58620;-67
2023/04/05 11:26:29;;;;;;;4.60;1.35;;;;;;;;;;5003303;28;58900;-67
2023/04/05 11:28:56;;;;;;;3.10;0.40;;;;;;;;;;5004458;28;58285;-70
2023/04/05 11:31:25;;;;;;;0.30;0.30;;;;;;;;;;5001179;28;58741;-70
2023/04/05 11:33:55;;;;;;;0.75;0.40;;;;;;;;;;5002201;28;58875;-71
2023/04/05 11:36:30;;;;;;;0.52;0.38;;;;;;;;;;5001005;28;58647;-70
2023/04/05 11:39:14;;;;;;;0.38;0.38;;;;;;;;;;5003186;28;59217;-70
2023/04/05 11:41:39;;;;;;;0.52;0.40;;;;;;;;;;5002589;28;62822;-70
2023/04/05 11:44:12;;;;;;;0.50;0.38;;;;;;;;;;5000648;28;58287;-69
2023/04/05 11:46:37;;;;;;;1.13;0.77;;;;;;;;;;4999123;28;58585;-70
2023/04/05 11:49:03;;;;;;;0.93;0.82;;;;;;;;;;5007296;28;58937;-70
2023/04/05 11:51:28;;;;;;;1.00;0.30;;;;;;;;;;5002892;28;58808;-70
2023/04/05 11:53:53;;;;;;;0.68;0.20;;;;;;;;;;5004241;28;58439;-70
2023/04/05 11:56:19;;;;;;;1.80;0.30;;;;;;;;;;5015533;22;58526;-69
2023/04/05 11:58:44;;;;;;;0.30;0.23;;;;;;;;;;4985606;28;58693;-70
2023/04/05 12:01:09;;;;;;;0.40;0.38;;;;;;;;;;4984342;28;58598;-70
2023/04/05 12:03:35;;;;;;;0.57;0.20;;;;;;;;;;4985413;28;58602;-70
2023/04/05 12:06:01;;;;;;;0.40;0.20;;;;;;;;;;4984501;28;58631;-70
2023/04/05 12:08:52;;;;;;;0.43;0.30;;;;;;;;;;4985078;28;58037;-69
2023/04/05 12:11:27;;;;;;;0.93;0.30;;;;;;;;;;4986216;28;58744;-69
2023/04/05 12:13:57;;;;;;;0.30;0.30;;;;;;;;;;4986556;28;58767;-70
2023/04/05 12:16:22;;;;;;;1.05;0.45;;;;;;;;;;4978494;28;58614;-71
2023/04/05 12:18:54;;;;;;;0.30;0.30;;;;;;;;;;4983525;28;58212;-70
2023/04/05 12:21:20;;;;;;;0.47;0.47;;;;;;;;;;4984577;28;58925;-70
2023/04/05 12:23:45;;;;;;;2.83;0.90;;;;;;;;;;4985930;28;58170;-71
2023/04/05 12:26:10;;;;;;;1.13;0.38;;;;;;;;;;4986455;28;57957;-69
2023/04/05 12:28:48;;;;;;;0.60;0.30;;;;;;;;;;4984139;28;58537;-70
2023/04/05 12:31:14;;;;;;;0.73;0.52;;;;;;;;;;4979256;28;58513;-70
2023/04/05 12:33:41;;;;;;;0.47;0.30;;;;;;;;;;4984139;28;58450;-70
2023/04/05 12:36:07;;;;;;;0.30;0.30;;;;;;;;;;4988670;28;58595;-69
2023/04/05 12:38:32;;;;;;;0.68;0.30;;;;;;;;;;4989242;28;62439;-70
2023/04/05 12:41:01;;;;;;;0.37;0.27;;;;;;;;;;4982617;28;59314;-70
2023/04/05 12:43:36;;;;;;;1.08;0.55;;;;;;;;;;4985296;28;58815;-70
2023/04/05 12:46:05;;;;;;;1.58;0.85;;;;;;;;;;4981702;28;58887;-71
2023/04/05 12:48:30;;;;;;;1.02;0.28;;;;;;;;;;4985839;28;58901;-70
2023/04/05 12:50:55;;;;;;;1.40;0.82;;;;;;;;;;4989111;28;58599;-69
2023/04/05 12:53:22;;;;;;;0.77;0.40;;;;;;;;;;4984449;28;58607;-70
2023/04/05 12:55:49;;;;;;;0.30;0.27;;;;;;;;;;4986276;28;58921;-70
2023/04/05 12:58:16;;;;;;;0.45;0.20;;;;;;;;;;5030059;22;59185;-70
2023/04/05 13:00:41;;;;;;;0.10;0.10;;;;;;;;;;4998836;28;58555;-70
2023/04/05 13:03:14;;;;;;;0.73;0.40;;;;;;;;;;5003544;28;58525;-71
2023/04/05 13:05:39;;;;;;;0.43;0.30;;;;;;;;;;4996674;28;63373;-70
2023/04/05 13:08:04;;;;;;;0.40;0.30;;;;;;;;;;5005005;28;58426;-70
2023/04/05 13:10:29;;;;;;;0.45;0.40;;;;;;;;;;5007092;28;58035;-70
2023/04/05 13:12:55;;;;;;;0.38;0.15;;;;;;;;;;4994232;28;58414;-70
2023/04/05 13:15:20;;;;;;;2.42;0.40;;;;;;;;;;5001111;28;58258;-70
2023/04/05 13:17:48;;;;;;;0.40;0.22;;;;;;;;;;5005105;28;58572;-70
2023/04/05 13:20:14;;;;;;;2.90;0.32;;;;;;;;;;5003969;28;58684;-70
2023/04/05 13:22:39;;;;;;;0.90;0.28;;;;;;;;;;5001605;28;58465;-70
2023/04/05 13:25:05;;;;;;;0.38;0.10;;;;;;;;;;5002380;28;58490;-69
2023/04/05 13:27:30;;;;;;;0.85;0.50;;;;;;;;;;5005693;28;58828;-70
2023/04/05 13:29:55;;;;;;;0.27;0.27;;;;;;;;;;5000096;28;58167;-70
2023/04/05 13:32:20;;;;;;;0.20;0.20;;;;;;;;;;4999868;28;58885;-70
2023/04/05 13:34:46;;;;;;;0.37;0.37;;;;;;;;;;5004090;28;58701;-70
2023/04/05 13:37:11;;;;;;;4.50;0.97;;;;;;;;;;4979415;28;60308;-69
2023/04/05 13:39:36;;;;;;;0.27;0.27;;;;;;;;;;5004251;28;58369;-70
2023/04/05 13:42:01;;;;;;;0.50;0.30;;;;;;;;;;5003203;28;57786;-70
2023/04/05 13:44:26;;;;;;;0.63;0.50;;;;;;;;;;5000710;28;59012;-70
2023/04/05 13:46:51;;;;;;;0.57;0.40;;;;;;;;;;5003059;28;58699;-70
2023/04/05 13:49:16;;;;;;;0.30;0.30;;;;;;;;;;5002088;28;58128;-69
2023/04/05 13:51:42;;;;;;;0.75;0.22;;;;;;;;;;5005952;28;58277;-69
2023/04/05 13:54:07;;;;;;;0.10;0.10;;;;;;;;;;5004195;28;57977;-69
2023/04/05 13:56:32;;;;;;;2.63;0.73;;;;;;;;;;5003985;28;58980;-69
2023/04/05 13:58:57;;;;;;;0.22;0.22;;;;;;;;;;5008354;22;58506;-71
2023/04/05 14:01:23;;;;;;;0.47;0.43;;;;;;;;;;4971215;28;58404;-70
2023/04/05 14:03:48;;;;;;;0.57;0.50;;;;;;;;;;4973181;28;58386;-70
2023/04/05 14:06:13;;;;;;;1.00;0.50;;;;;;;;;;4969855;28;58667;-69
2023/04/05 14:08:38;;;;;;;0.20;0.20;;;;;;;;;;4980960;28;58647;-70
2023/04/05 14:11:05;;;;;;;0.63;0.30;;;;;;;;;;4977056;28;58463;-70
2023/04/05 14:13:30;;;;;;;1.85;0.20;;;;;;;;;;4975670;28;58234;-70
2023/04/05 14:15:55;;;;;;;0.27;0.20;;;;;;;;;;4972571;28;58835;-70
2023/04/05 14:18:21;;;;;;;0.50;0.32;;;;;;;;;;4979473;28;58409;-69
2023/04/05 14:20:46;;;;;;;0.30;0.30;;;;;;;;;;4977930;28;58382;-69
2023/04/05 14:23:11;;;;;;;1.42;0.40;;;;;;;;;;4975724;28;58278;-70
2023/04/05 14:25:36;;;;;;;0.27;0.20;;;;;;;;;;4972052;28;58522;-70
2023/04/05 14:28:02;;;;;;;0.30;0.30;;;;;;;;;;4971534;28;58570;-70
2023/04/05 14:30:27;;;;;;;0.32;0.30;;;;;;;;;;4976178;28;58747;-69
2023/04/05 14:32:52;;;;;;;0.37;0.13;;;;;;;;;;4978104;28;58526;-70
2023/04/05 14:35:17;;;;;;;0.40;0.20;;;;;;;;;;4972185;28;58377;-68
2023/04/05 14:37:45;;;;;;;0.50;0.20;;;;;;;;;;4974086;28;58035;-70
2023/04/05 14:40:10;;;;;;;;;;;;;;;;;;4976998;28;58655;-70
2023/04/05 14:42:35;;;;;;;0.20;0.20;;;;;;;;;;4982759;28;58459;-70